Time;durP1;ratioP1;P1;durP2;ratioP2;P2;SDS_P1;SDS_P2;PMS_P1;PMS_P2;Temp;Humidity;BMP_temperature;BMP_pressure;BME280_temperature;BME280_humidity;BME280_pressure;Samples;Min_cycle;Max_cycle;Signal;HPM_P1;HPM_P2
2021/12/14 00:01:16;;;;;;;3.85;2.60;;;16.00;56.00;;;;;;5093365;28;20024;-39
2021/12/14 00:03:43;;;;;;;3.20;2.40;;;16.00;56.00;;;;;;5093385;28;20134;-40
2021/12/14 00:06:10;;;;;;;3.20;2.55;;;16.00;56.10;;;;;;5093450;28;20048;-39
2021/12/14 00:08:47;;;;;;;3.03;2.60;;;16.00;56.00;;;;;;5093564;28;20012;-39
2021/12/14 00:11:30;;;;;;;3.58;2.60;;;15.90;56.00;;;;;;5093275;28;20030;-39
2021/12/14 00:14:10;;;;;;;3.42;2.70;;;15.90;56.00;;;;;;5093661;28;20017;-39
2021/12/14 00:16:36;;;;;;;3.35;2.47;;;15.90;56.00;;;;;;5094173;28;20097;-39
2021/12/14 00:19:02;;;;;;;2.92;2.33;;;16.00;56.00;;;;;;5093991;28;20450;-39
2021/12/14 00:21:30;;;;;;;2.67;2.30;;;16.00;56.10;;;;;;5094132;28;20040;-37
2021/12/14 00:24:09;;;;;;;3.25;2.47;;;16.00;56.10;;;;;;5095328;28;20016;-35
2021/12/14 00:26:46;;;;;;;3.30;2.63;;;15.90;56.00;;;;;;5093378;28;20095;-36
2021/12/14 00:29:18;;;;;;;3.00;2.50;;;16.00;56.10;;;;;;5093263;28;20028;-35
2021/12/14 00:31:44;;;;;;;2.55;2.10;;;15.90;56.10;;;;;;5093550;28;20019;-35
2021/12/14 00:34:14;;;;;;;4.38;2.60;;;15.90;56.10;;;;;;5093477;28;20074;-36
2021/12/14 00:36:40;;;;;;;2.80;2.25;;;15.90;56.10;;;;;;5093077;28;20020;-36
2021/12/14 00:39:08;;;;;;;3.35;2.50;;;15.90;56.10;;;;;;5093042;28;20078;-36
2021/12/14 00:41:35;;;;;;;3.35;2.75;;;15.90;56.10;;;;;;5093018;28;20008;-36
2021/12/14 00:44:02;;;;;;;2.53;2.28;;;15.90;56.10;;;;;;5093143;28;20028;-35
2021/12/14 00:46:28;;;;;;;3.55;2.45;;;15.90;56.10;;;;;;5075389;28;20016;-35
2021/12/14 00:48:53;;;;;;;2.70;2.40;;;15.90;56.10;;;;;;5093223;28;20466;-36
2021/12/14 00:51:22;;;;;;;2.75;2.42;;;15.90;56.10;;;;;;5093070;28;20035;-36
2021/12/14 00:53:48;;;;;;;3.28;2.80;;;15.90;56.10;;;;;;5093191;28;20020;-36
2021/12/14 00:56:14;;;;;;;3.25;2.42;;;15.90;56.10;;;;;;5093266;28;20076;-35
2021/12/14 00:58:39;;;;;;;2.70;2.30;;;15.80;56.10;;;;;;5093075;28;20024;-35
2021/12/14 01:01:12;;;;;;;2.63;2.08;;;15.80;56.10;;;;;;5093353;28;20070;-35
2021/12/14 01:03:40;;;;;;;3.20;2.35;;;15.90;56.20;;;;;;5093749;28;20027;-36
2021/12/14 01:06:10;;;;;;;2.30;2.10;;;15.80;56.20;;;;;;5093923;28;20009;-36
2021/12/14 01:08:39;;;;;;;2.72;2.20;;;15.80;56.20;;;;;;5093646;28;20024;-36
2021/12/14 01:11:15;;;;;;;3.15;2.40;;;15.80;56.30;;;;;;5096347;28;20021;-36
2021/12/14 01:13:48;;;;;;;2.42;2.17;;;15.80;56.30;;;;;;5079592;28;20012;-36
2021/12/14 01:16:19;;;;;;;2.83;2.33;;;15.80;56.30;;;;;;5097465;28;20024;-37
2021/12/14 01:19:00;;;;;;;2.55;2.10;;;15.80;56.20;;;;;;5097085;28;20040;-35
2021/12/14 01:24:20;;;;;;;2.95;2.22;;;15.80;56.20;;;;;;5097824;28;20108;-36
2021/12/14 01:26:45;;;;;;;2.78;2.17;;;15.80;56.20;;;;;;5063951;28;20036;-37
2021/12/14 01:29:13;;;;;;;2.97;2.40;;;15.80;56.20;;;;;;5096981;28;20027;-37
2021/12/14 01:31:41;;;;;;;2.88;2.20;;;15.80;56.20;;;;;;5097382;28;20020;-38
2021/12/14 01:34:12;;;;;;;2.80;2.10;;;15.80;56.30;;;;;;5096977;28;20026;-37
2021/12/14 01:37:05;;;;;;;2.47;1.90;;;15.80;56.20;;;;;;5098692;28;20497;-37
2021/12/14 01:42:02;;;;;;;2.40;2.10;;;15.80;56.30;;;;;;5098952;28;20020;-36
2021/12/14 01:44:31;;;;;;;2.70;2.20;;;15.80;56.30;;;;;;5098331;28;20010;-35
2021/12/14 01:47:04;;;;;;;3.25;1.95;;;15.80;56.30;;;;;;5079469;28;20017;-35
2021/12/14 01:49:30;;;;;;;2.22;1.92;;;15.80;56.30;;;;;;5097264;28;20012;-38
2021/12/14 01:52:01;;;;;;;3.03;2.20;;;15.70;56.30;;;;;;5097160;28;20017;-35
2021/12/14 01:54:33;;;;;;;2.70;2.00;;;15.70;56.30;;;;;;5096964;28;20081;-36
2021/12/14 01:57:02;;;;;;;3.20;2.17;;;15.70;56.30;;;;;;5097357;28;20044;-36
2021/12/14 01:59:34;;;;;;;2.20;1.90;;;15.70;56.30;;;;;;5097156;28;20013;-35
2021/12/14 02:04:44;;;;;;;2.65;2.05;;;15.70;56.30;;;;;;5081148;28;20016;-36
2021/12/14 02:07:11;;;;;;;2.67;2.08;;;15.70;56.30;;;;;;5098110;28;20096;-36
2021/12/14 02:09:37;;;;;;;2.80;2.00;;;15.70;56.30;;;;;;5097298;28;20020;-36
2021/12/14 02:12:13;;;;;;;3.08;2.00;;;15.70;56.30;;;;;;5096160;28;20420;-36
2021/12/14 02:14:39;;;;;;;2.08;1.80;;;15.70;56.30;;;;;;5096089;28;20023;-36
2021/12/14 02:17:07;;;;;;;2.78;2.10;;;15.70;56.80;;;;;;5095877;28;20506;-36
2021/12/14 02:19:33;;;;;;;2.10;1.90;;;15.70;56.30;;;;;;5096069;28;20028;-36
2021/12/14 02:22:00;;;;;;;2.30;2.10;;;15.70;56.30;;;;;;5095633;28;20020;-37
2021/12/14 02:24:27;;;;;;;3.80;2.05;;;15.70;56.30;;;;;;5078139;28;20020;-36
2021/12/14 02:26:54;;;;;;;2.33;2.13;;;15.70;56.30;;;;;;5096338;28;20009;-37
2021/12/14 02:29:31;;;;;;;2.65;2.13;;;15.70;56.30;;;;;;5095843;28;20036;-37
2021/12/14 02:32:08;;;;;;;2.83;2.15;;;15.70;56.30;;;;;;5095430;28;20019;-37
2021/12/14 02:34:38;;;;;;;2.30;1.88;;;15.60;56.30;;;;;;5096028;28;20016;-37
2021/12/14 02:37:05;;;;;;;2.88;1.80;;;15.70;56.30;;;;;;5095830;28;20020;-37
2021/12/14 02:42:04;;;;;;;2.30;2.10;;;15.70;56.40;;;;;;5095325;28;20027;-38
2021/12/14 02:44:32;;;;;;;2.08;1.88;;;15.60;56.40;;;;;;5095168;28;20012;-38
2021/12/14 02:47:00;;;;;;;2.30;2.10;;;15.70;56.40;;;;;;5095497;28;20027;-37
2021/12/14 02:49:29;;;;;;;2.08;1.88;;;15.70;56.30;;;;;;5095211;28;20020;-38
2021/12/14 02:52:37;;;;;;;2.10;1.90;;;15.60;56.40;;;;;;5095688;28;20020;-38
2021/12/14 02:55:10;;;;;;;2.88;2.10;;;15.60;56.40;;;;;;5095081;28;20024;-38
2021/12/14 02:57:37;;;;;;;2.95;1.95;;;15.60;56.30;;;;;;5094854;28;20470;-38
2021/12/14 03:00:08;;;;;;;2.92;2.25;;;15.60;56.40;;;;;;5095377;28;20027;-38
2021/12/14 03:02:35;;;;;;;2.72;2.13;;;15.60;56.40;;;;;;5095602;28;20016;-39
2021/12/14 03:05:07;;;;;;;2.20;2.00;;;15.60;56.30;;;;;;5095477;28;20008;-39
2021/12/14 03:07:43;;;;;;;2.38;2.10;;;15.60;56.40;;;;;;5095194;28;20023;-39
2021/12/14 03:12:46;;;;;;;2.50;2.00;;;15.60;56.40;;;;;;5095129;28;20035;-39
2021/12/14 03:15:18;;;;;;;1.88;1.67;;;15.60;56.40;;;;;;5094809;28;20008;-39
2021/12/14 03:17:44;;;;;;;2.30;2.10;;;15.60;56.90;;;;;;5094595;28;20547;-38
2021/12/14 03:20:36;;;;;;;2.28;1.75;;;15.60;56.30;;;;;;5095076;28;20040;-41
2021/12/14 03:23:17;;;;;;;2.28;2.00;;;15.60;56.20;;;;;;5095153;28;20504;-43
2021/12/14 03:26:05;;;;;;;2.30;2.10;;;15.70;56.10;;;;;;5094712;28;20024;-41
2021/12/14 03:28:31;;;;;;;2.70;2.22;;;15.80;55.80;;;;;;5094715;28;20027;-40
2021/12/14 03:31:27;;;;;;;2.95;1.98;;;15.90;55.50;;;;;;5079211;28;20470;-41
2021/12/14 03:34:15;;;;;;;3.28;2.20;;;16.00;54.90;;;;;;5093898;28;20024;-40
2021/12/14 03:37:02;;;;;;;2.80;2.20;;;16.20;54.40;;;;;;5094459;28;20046;-41
2021/12/14 03:39:30;;;;;;;5.68;3.08;;;16.20;54.10;;;;;;5094041;28;20032;-40
2021/12/14 03:42:11;;;;;;;2.30;1.90;;;16.30;53.80;;;;;;5094513;28;20466;-41
2021/12/14 03:44:40;;;;;;;2.28;2.00;;;16.40;53.50;;;;;;5095006;28;20091;-40
2021/12/14 03:47:09;;;;;;;2.30;1.90;;;16.50;53.30;;;;;;5094847;28;20409;-40
2021/12/14 03:50:28;;;;;;;2.00;1.80;;;16.60;53.20;;;;;;5094528;28;20024;-41
2021/12/14 03:52:53;;;;;;;2.25;2.03;;;16.70;53.00;;;;;;5094303;28;20081;-40
2021/12/14 03:55:28;;;;;;;2.53;2.10;;;16.70;52.60;;;;;;5094221;28;20036;-42
2021/12/14 03:57:54;;;;;;;3.35;2.10;;;16.80;52.50;;;;;;5093901;28;20474;-40
2021/12/14 04:00:33;;;;;;;2.17;1.88;;;16.80;52.30;;;;;;5076775;28;20024;-40
2021/12/14 04:03:00;;;;;;;2.13;1.92;;;16.80;52.20;;;;;;5094503;28;20485;-36
2021/12/14 04:05:26;;;;;;;2.35;2.00;;;17.00;52.10;;;;;;5094431;28;20009;-37
2021/12/14 04:07:52;;;;;;;2.20;1.55;;;17.00;51.90;;;;;;5094442;28;20024;-36
2021/12/14 04:10:25;;;;;;;2.17;1.70;;;17.00;51.80;;;;;;5076623;28;20363;-36
2021/12/14 04:12:51;;;;;;;2.67;1.95;;;17.10;51.60;;;;;;5095154;28;20028;-37
2021/12/14 04:15:17;;;;;;;2.30;1.83;;;17.10;51.50;;;;;;5076405;28;20377;-36
2021/12/14 04:17:43;;;;;;;1.98;1.73;;;17.20;51.30;;;;;;5094202;28;20051;-36
2021/12/14 04:20:11;;;;;;;2.03;1.83;;;17.30;51.20;;;;;;5075598;28;20034;-36
2021/12/14 04:22:37;;;;;;;2.08;1.70;;;17.30;51.00;;;;;;5094478;28;20471;-37
2021/12/14 04:25:04;;;;;;;2.53;1.70;;;17.40;50.80;;;;;;5094456;28;20116;-36
2021/12/14 04:27:31;;;;;;;1.90;1.70;;;17.40;50.60;;;;;;5094343;28;20016;-36
2021/12/14 04:29:58;;;;;;;2.08;1.73;;;17.50;50.50;;;;;;5094736;28;20023;-36
2021/12/14 04:32:24;;;;;;;2.22;1.90;;;17.50;50.40;;;;;;5076659;28;20069;-36
2021/12/14 04:34:50;;;;;;;2.50;1.83;;;17.60;50.30;;;;;;5094060;28;20517;-36
2021/12/14 04:37:16;;;;;;;2.42;1.80;;;17.70;50.10;;;;;;5093968;28;20024;-35
2021/12/14 04:39:47;;;;;;;2.08;1.80;;;17.70;49.90;;;;;;5093941;28;20055;-36
2021/12/14 04:53:44;;;;;;;2.55;1.90;;;18.10;49.10;;;;;;5097092;28;20039;-37
2021/12/14 04:56:13;;;;;;;1.70;1.60;;;18.10;49.00;;;;;;5097437;28;20099;-37
2021/12/14 04:58:45;;;;;;;2.20;1.90;;;18.10;49.00;;;;;;5097524;28;20024;-38
2021/12/14 05:01:11;;;;;;;1.80;1.55;;;18.20;48.80;;;;;;5097352;28;20016;-39
2021/12/14 05:03:54;;;;;;;2.00;1.80;;;18.20;48.70;;;;;;5079513;28;20012;-38
2021/12/14 05:06:23;;;;;;;1.80;1.70;;;18.20;48.60;;;;;;5097370;28;20020;-39
2021/12/14 05:11:18;;;;;;;1.90;1.70;;;18.30;48.40;;;;;;5097378;28;20517;-41
2021/12/14 05:13:48;;;;;;;2.00;1.80;;;18.40;48.40;;;;;;5096961;28;20016;-39
2021/12/14 05:16:19;;;;;;;1.83;1.60;;;18.30;48.30;;;;;;5102635;28;20044;-38
2021/12/14 05:18:47;;;;;;;1.92;1.70;;;18.40;48.20;;;;;;5117388;28;20024;-38
2021/12/14 05:21:13;;;;;;;2.00;1.80;;;18.40;48.00;;;;;;5099525;28;20012;-38
2021/12/14 05:23:38;;;;;;;1.88;1.70;;;18.50;48.00;;;;;;5117260;28;20012;-36
2021/12/14 05:26:07;;;;;;;1.85;1.60;;;18.50;47.90;;;;;;5117229;28;20016;-38
2021/12/14 05:28:33;;;;;;;1.90;1.70;;;18.60;47.90;;;;;;5116984;28;20023;-36
2021/12/14 05:31:00;;;;;;;2.30;1.80;;;18.60;47.80;;;;;;5082071;28;20019;-37
2021/12/14 05:33:30;;;;;;;2.78;2.00;;;18.60;47.70;;;;;;5116791;28;20024;-36
2021/12/14 05:36:01;;;;;;;1.80;1.70;;;18.70;47.60;;;;;;5098824;28;20018;-36
2021/12/14 05:38:44;;;;;;;2.22;1.70;;;18.70;47.60;;;;;;5117187;28;20023;-36
2021/12/14 05:43:54;;;;;;;2.30;1.75;;;18.70;47.40;;;;;;5117109;28;20489;-38
2021/12/14 05:46:20;;;;;;;2.25;1.70;;;18.70;47.40;;;;;;5099161;28;20016;-37
2021/12/14 05:48:46;;;;;;;2.35;1.70;;;18.80;47.40;;;;;;5117191;28;20020;-38
2021/12/14 05:51:12;;;;;;;1.85;1.63;;;18.80;47.30;;;;;;5098972;28;20103;-38
2021/12/14 05:53:40;;;;;;;2.08;1.75;;;18.80;47.30;;;;;;5116945;28;20453;-38
2021/12/14 05:56:20;;;;;;;1.85;1.65;;;18.80;47.10;;;;;;5097611;28;20466;-37
2021/12/14 05:58:47;;;;;;;2.38;1.70;;;18.80;47.10;;;;;;5116567;28;20051;-38
2021/12/14 06:01:15;;;;;;;2.08;1.80;;;18.90;47.10;;;;;;5116285;28;20035;-38
2021/12/14 06:03:43;;;;;;;1.98;1.77;;;18.90;47.00;;;;;;5116400;28;20026;-36
2021/12/14 06:06:23;;;;;;;2.22;1.70;;;18.90;47.00;;;;;;5116748;28;20026;-36
2021/12/14 06:08:49;;;;;;;2.30;1.60;;;18.90;46.90;;;;;;5117274;28;20032;-37
2021/12/14 06:11:22;;;;;;;1.95;1.50;;;18.90;46.80;;;;;;5116614;28;20026;-36
2021/12/14 06:13:48;;;;;;;2.42;1.88;;;19.00;46.80;;;;;;5116905;28;20019;-36
2021/12/14 06:16:28;;;;;;;1.90;1.70;;;19.00;46.80;;;;;;5116330;28;20050;-37
2021/12/14 06:18:54;;;;;;;1.98;1.58;;;19.00;46.70;;;;;;5116341;28;20031;-37
2021/12/14 06:21:32;;;;;;;2.30;1.60;;;19.00;46.60;;;;;;5097344;28;20044;-37
2021/12/14 06:24:04;;;;;;;2.35;1.70;;;19.10;46.60;;;;;;5115728;28;20016;-36
2021/12/14 06:26:38;;;;;;;2.13;1.63;;;19.10;46.60;;;;;;5115648;28;20008;-36
2021/12/14 06:29:06;;;;;;;1.90;1.65;;;19.10;46.50;;;;;;5115535;28;20047;-37
2021/12/14 06:31:31;;;;;;;1.88;1.70;;;19.10;46.40;;;;;;5115627;28;20023;-36
2021/12/14 06:33:57;;;;;;;1.92;1.67;;;19.10;46.40;;;;;;5115289;28;20020;-36
2021/12/14 06:37:02;;;;;;;1.95;1.75;;;19.10;46.40;;;;;;5080425;28;20370;-37
2021/12/14 06:39:28;;;;;;;1.88;1.60;;;19.10;46.40;;;;;;5101227;28;20034;-36
2021/12/14 06:42:07;;;;;;;2.08;1.88;;;19.20;46.30;;;;;;5097826;28;20012;-36
2021/12/14 06:44:33;;;;;;;1.60;1.50;;;19.20;46.30;;;;;;5115687;28;20012;-36
2021/12/14 06:47:00;;;;;;;1.75;1.65;;;19.20;46.20;;;;;;5115441;28;20008;-36
2021/12/14 06:49:25;;;;;;;3.33;1.70;;;19.20;46.20;;;;;;5096161;28;20106;-36
2021/12/14 06:51:53;;;;;;;2.03;1.70;;;19.20;46.20;;;;;;5114480;28;20024;-38
2021/12/14 06:54:25;;;;;;;2.08;1.70;;;19.20;46.10;;;;;;5114703;28;20012;-36
2021/12/14 06:56:56;;;;;;;1.98;1.70;;;19.30;46.10;;;;;;5079307;28;20016;-36
2021/12/14 06:59:22;;;;;;;2.08;1.60;;;19.30;46.00;;;;;;5114112;28;20080;-37
2021/12/14 07:01:53;;;;;;;2.13;1.70;;;19.30;46.00;;;;;;5095960;28;20012;-38
2021/12/14 07:04:31;;;;;;;2.35;1.70;;;19.30;46.00;;;;;;5113831;28;20015;-36
2021/12/14 07:07:06;;;;;;;1.98;1.77;;;19.30;46.00;;;;;;5113949;28;20023;-39
2021/12/14 07:09:35;;;;;;;2.10;1.80;;;19.30;46.00;;;;;;5113542;28;20442;-36
2021/12/14 07:12:04;;;;;;;2.17;1.63;;;19.30;45.90;;;;;;5094995;28;20034;-37
2021/12/14 07:14:31;;;;;;;1.60;1.50;;;19.30;45.80;;;;;;5113432;28;20024;-38
2021/12/14 07:17:03;;;;;;;2.33;1.90;;;19.30;45.90;;;;;;5113208;28;20459;-37
2021/12/14 07:19:54;;;;;;;3.65;1.90;;;19.30;45.80;;;;;;5112474;28;20019;-36
2021/12/14 07:22:23;;;;;;;2.45;1.70;;;19.40;45.80;;;;;;5111704;28;20088;-37
2021/12/14 07:25:05;;;;;;;2.00;1.63;;;19.40;45.80;;;;;;5094328;28;20023;-37
2021/12/14 07:27:32;;;;;;;2.15;1.60;;;19.40;45.80;;;;;;5078565;28;20050;-37
2021/12/14 07:30:33;;;;;;;2.15;1.77;;;19.40;45.80;;;;;;5113840;28;20103;-37
2021/12/14 07:33:05;;;;;;;2.38;1.70;;;19.40;45.80;;;;;;5100561;28;20036;-39
2021/12/14 07:35:58;;;;;;;1.85;1.65;;;19.40;45.80;;;;;;5113807;28;20111;-37
2021/12/14 07:38:28;;;;;;;2.75;2.10;;;19.40;45.80;;;;;;5110340;28;20031;-37
2021/12/14 07:41:05;;;;;;;3.03;1.92;;;19.40;45.90;;;;;;5113820;28;20584;-37
2021/12/14 07:44:08;;;;;;;2.30;2.00;;;19.40;45.80;;;;;;5114078;28;20478;-37
2021/12/14 07:46:52;;;;;;;2.60;2.05;;;19.40;45.90;;;;;;5113640;28;20434;-37
2021/12/14 07:49:34;;;;;;;2.67;2.10;;;19.40;45.90;;;;;;5096513;28;20069;-37
2021/12/14 07:52:08;;;;;;;5.47;2.35;;;19.50;45.90;;;;;;5114612;28;20038;-39
2021/12/14 07:54:55;;;;;;;2.88;2.30;;;19.50;45.90;;;;;;5115868;28;20024;-39
2021/12/14 07:57:25;;;;;;;3.60;2.42;;;19.50;45.90;;;;;;5116276;28;20137;-37
2021/12/14 08:00:14;;;;;;;4.07;2.28;;;19.50;45.80;;;;;;5099301;28;20098;-38
2021/12/14 08:02:41;;;;;;;3.13;2.58;;;19.50;45.80;;;;;;5115394;28;20016;-37
2021/12/14 08:05:28;;;;;;;3.38;2.33;;;19.50;45.80;;;;;;5115616;28;20035;-38
2021/12/14 08:07:58;;;;;;;2.95;2.50;;;19.60;45.90;;;;;;5115587;28;20107;-37
2021/12/14 08:10:29;;;;;;;7.15;2.65;;;19.60;45.90;;;;;;5116154;28;20030;-37
2021/12/14 08:13:36;;;;;;;3.88;2.67;;;19.60;45.90;;;;;;5097915;28;20031;-41
2021/12/14 08:16:02;;;;;;;3.65;2.83;;;19.60;45.90;;;;;;5012454;28;20121;-37
2021/12/14 08:18:33;;;;;;;4.10;2.63;;;19.60;45.90;;;;;;5012448;28;20536;-39
2021/12/14 08:21:01;;;;;;;3.20;2.50;;;19.60;45.90;;;;;;5013691;28;20034;-38
2021/12/14 08:23:56;;;;;;;3.20;2.75;;;19.60;45.90;;;;;;5012866;28;20501;-37
2021/12/14 08:26:29;;;;;;;4.18;2.78;;;19.60;45.90;;;;;;4999083;28;20037;-37
2021/12/14 08:28:56;;;;;;;3.75;3.08;;;19.60;45.90;;;;;;5012288;28;20539;-37
2021/12/14 08:31:23;;;;;;;3.85;3.20;;;19.60;45.90;;;;;;4995749;28;20068;-37
2021/12/14 08:34:12;;;;;;;5.13;3.35;;;19.70;46.00;;;;;;4996140;28;20087;-38
2021/12/14 08:36:39;;;;;;;3.35;2.88;;;19.70;45.90;;;;;;4995092;28;20025;-37
2021/12/14 08:39:13;;;;;;;4.20;3.15;;;19.70;45.90;;;;;;5010738;28;20202;-37
2021/12/14 08:41:47;;;;;;;3.80;3.20;;;19.70;45.90;;;;;;4995400;28;20503;-37
2021/12/14 08:44:20;;;;;;;4.20;3.30;;;19.70;45.80;;;;;;4994686;28;20381;-37
2021/12/14 08:46:49;;;;;;;5.55;3.20;;;19.70;45.80;;;;;;5063698;28;20095;-37
2021/12/14 08:49:15;;;;;;;5.30;3.50;;;19.70;45.70;;;;;;5113403;28;20141;-38
2021/12/14 08:51:44;;;;;;;5.22;3.33;;;19.80;45.80;;;;;;5113309;28;20265;-37
2021/12/14 08:54:21;;;;;;;3.78;3.30;;;19.80;45.80;;;;;;5112890;28;20043;-37
2021/12/14 08:57:18;;;;;;;6.82;3.40;;;19.80;45.80;;;;;;5113671;28;20020;-37
2021/12/14 08:59:47;;;;;;;5.18;3.60;;;19.80;45.80;;;;;;5092582;28;20035;-38
2021/12/14 09:02:17;;;;;;;5.28;3.30;;;19.80;45.70;;;;;;5113272;28;20007;-35
2021/12/14 09:04:55;;;;;;;5.70;3.30;;;19.80;46.20;;;;;;5112764;28;20031;-37
2021/12/14 09:07:24;;;;;;;6.50;3.65;;;19.80;45.70;;;;;;5112893;28;20020;-38
2021/12/14 09:09:50;;;;;;;5.95;3.65;;;19.80;45.70;;;;;;5112840;28;20023;-36
2021/12/14 09:12:39;;;;;;;5.68;3.30;;;19.70;45.90;;;;;;5112449;28;20047;-38
2021/12/14 09:15:12;;;;;;;5.57;3.72;;;19.60;46.00;;;;;;5077673;28;20426;-38
2021/12/14 09:17:38;;;;;;;5.00;3.75;;;19.60;46.70;;;;;;5112588;28;20048;-38
2021/12/14 09:20:44;;;;;;;4.38;3.47;;;19.60;46.30;;;;;;5094337;28;20035;-37
2021/12/14 09:23:16;;;;;;;5.65;3.80;;;19.50;46.30;;;;;;5081232;28;20095;-39
2021/12/14 09:25:42;;;;;;;6.20;4.03;;;19.50;46.40;;;;;;5113343;28;20014;-37
2021/12/14 09:28:08;;;;;;;4.80;3.70;;;19.50;46.60;;;;;;5112673;28;20015;-37
2021/12/14 09:30:36;;;;;;;5.07;3.92;;;19.40;46.60;;;;;;5095324;28;20016;-38
2021/12/14 09:33:03;;;;;;;5.07;4.00;;;19.40;46.70;;;;;;5117239;28;20012;-39
2021/12/14 09:35:29;;;;;;;6.28;4.00;;;19.40;46.70;;;;;;5116723;28;20562;-37
2021/12/14 09:37:56;;;;;;;5.20;3.90;;;19.40;46.70;;;;;;5116375;28;20004;-37
2021/12/14 09:40:31;;;;;;;5.70;3.75;;;19.30;46.70;;;;;;5116576;28;20073;-38
2021/12/14 09:42:58;;;;;;;7.22;4.53;;;19.30;46.70;;;;;;5119271;28;20004;-36
2021/12/14 09:45:28;;;;;;;8.43;4.30;;;19.30;46.80;;;;;;5102150;28;20415;-36
2021/12/14 09:47:54;;;;;;;4.72;3.88;;;19.30;46.90;;;;;;5117835;28;20012;-40
2021/12/14 09:50:26;;;;;;;6.70;4.28;;;19.30;46.90;;;;;;5099913;28;20083;-38
2021/12/14 09:52:54;;;;;;;6.13;4.40;;;19.30;47.00;;;;;;5083584;28;20028;-36
2021/12/14 09:55:23;;;;;;;7.45;4.43;;;19.30;47.00;;;;;;5100225;28;20042;-36
2021/12/14 09:57:53;;;;;;;6.40;4.10;;;19.30;47.00;;;;;;5117526;28;20019;-37
2021/12/14 10:00:23;;;;;;;6.65;4.28;;;19.30;47.10;;;;;;5118182;28;20059;-39
2021/12/14 10:02:49;;;;;;;5.97;4.30;;;19.30;47.20;;;;;;5117784;28;20027;-39
2021/12/14 10:05:24;;;;;;;5.35;4.05;;;19.30;47.20;;;;;;5099334;28;20015;-38
2021/12/14 10:07:54;;;;;;;7.88;4.38;;;19.20;47.20;;;;;;5117589;28;20068;-37
2021/12/14 10:10:20;;;;;;;;;;;19.20;47.20;;;;;;5117894;28;20355;-35
2021/12/14 10:12:53;;;;;;;6.85;4.32;;;19.20;47.20;;;;;;5117397;28;19900;-37
2021/12/14 10:15:39;;;;;;;6.28;4.20;;;19.20;47.20;;;;;;5116601;28;20011;-36
2021/12/14 10:18:11;;;;;;;5.75;4.40;;;19.20;47.30;;;;;;5116505;28;20043;-38
2021/12/14 10:21:01;;;;;;;8.18;4.85;;;19.20;47.30;;;;;;5117126;28;20019;-36
2021/12/14 10:23:27;;;;;;;5.82;4.07;;;19.20;47.30;;;;;;5115559;28;20063;-36
2021/12/14 10:25:53;;;;;;;5.85;4.15;;;19.20;47.30;;;;;;5116115;28;20012;-36
2021/12/14 10:28:19;;;;;;;6.65;3.95;;;19.20;47.30;;;;;;5097621;28;20466;-36
2021/12/14 10:30:53;;;;;;;5.28;4.07;;;19.20;47.30;;;;;;5115612;28;20023;-36
2021/12/14 10:33:19;;;;;;;7.88;4.20;;;19.20;47.20;;;;;;5115599;28;20480;-36
2021/12/14 10:35:48;;;;;;;6.38;4.15;;;19.20;47.20;;;;;;5080251;28;20046;-36
2021/12/14 10:38:25;;;;;;;7.80;4.47;;;19.30;47.30;;;;;;5115328;28;20074;-36
2021/12/14 10:43:55;;;;;;;4.55;3.88;;;19.20;47.30;;;;;;5115193;28;20023;-36
2021/12/14 10:46:27;;;;;;;6.15;4.28;;;19.20;47.30;;;;;;5115060;28;20011;-36
2021/12/14 10:48:53;;;;;;;6.68;4.30;;;19.20;47.30;;;;;;5115120;28;20012;-36
2021/12/14 10:51:25;;;;;;;5.53;3.90;;;19.30;47.30;;;;;;5115034;28;20484;-36
2021/12/14 10:53:52;;;;;;;6.03;4.15;;;19.20;47.20;;;;;;5115172;28;20023;-38
2021/12/14 10:56:24;;;;;;;6.28;4.03;;;19.20;47.30;;;;;;5080385;28;20042;-37
2021/12/14 10:58:52;;;;;;;5.80;4.18;;;19.20;47.20;;;;;;5114555;28;20604;-37
2021/12/14 11:01:20;;;;;;;6.78;4.40;;;19.30;47.20;;;;;;5062805;28;20012;-37
2021/12/14 11:03:49;;;;;;;6.25;4.10;;;19.20;47.80;;;;;;5115015;28;20042;-37
2021/12/14 11:06:17;;;;;;;8.60;4.25;;;19.20;47.30;;;;;;5096579;28;20579;-37
2021/12/14 11:08:58;;;;;;;6.43;4.45;;;19.20;47.30;;;;;;5114890;28;20020;-38
2021/12/14 11:11:45;;;;;;;6.78;4.50;;;19.20;47.20;;;;;;5114772;28;20016;-38
2021/12/14 11:14:13;;;;;;;7.70;4.55;;;19.20;47.20;;;;;;5114773;28;20027;-37
2021/12/14 11:20:02;;;;;;;6.55;4.60;;;19.30;47.20;;;;;;5114461;28;20505;-37
2021/12/14 11:22:52;;;;;;;6.85;4.45;;;19.30;47.10;;;;;;5012043;28;20113;-37
2021/12/14 11:25:20;;;;;;;6.00;4.28;;;19.30;47.10;;;;;;5011379;28;20069;-37
2021/12/14 11:28:15;;;;;;;6.57;4.50;;;19.30;47.20;;;;;;5011054;28;20121;-38
2021/12/14 11:30:46;;;;;;;6.88;4.53;;;19.30;47.20;;;;;;5011828;28;20029;-37
2021/12/14 11:33:16;;;;;;;6.20;4.32;;;19.30;47.10;;;;;;5011925;28;20060;-37
2021/12/14 11:35:52;;;;;;;6.28;4.30;;;19.30;47.10;;;;;;4995489;28;20072;-37
2021/12/14 11:38:38;;;;;;;6.05;4.00;;;19.30;47.10;;;;;;5011956;28;20113;-37
2021/12/14 11:41:32;;;;;;;5.78;4.10;;;19.30;47.10;;;;;;5012034;28;20053;-37
2021/12/14 11:44:07;;;;;;;6.03;3.78;;;19.30;47.20;;;;;;5005629;28;20030;-39
2021/12/14 11:46:33;;;;;;;7.88;3.97;;;19.30;47.20;;;;;;5012568;28;20029;-39
2021/12/14 11:49:02;;;;;;;5.78;4.03;;;19.30;47.20;;;;;;4979741;28;20022;-40
2021/12/14 11:51:28;;;;;;;7.25;4.03;;;19.30;47.10;;;;;;4995711;28;20033;-39
2021/12/14 11:53:55;;;;;;;6.25;4.07;;;19.30;47.10;;;;;;5011627;28;20392;-39
2021/12/14 11:56:23;;;;;;;5.88;3.75;;;19.30;47.10;;;;;;5012162;28;20409;-39
2021/12/14 11:58:51;;;;;;;5.30;3.78;;;19.30;47.10;;;;;;5098058;28;20035;-39
2021/12/14 12:01:19;;;;;;;7.18;4.18;;;19.30;47.10;;;;;;5079778;28;20065;-40
2021/12/14 12:03:58;;;;;;;7.43;3.70;;;19.30;47.10;;;;;;5114462;28;20102;-40
2021/12/14 12:09:31;;;;;;;7.15;3.95;;;19.30;47.10;;;;;;5090416;28;20106;-40
2021/12/14 12:12:03;;;;;;;6.30;3.90;;;19.30;47.10;;;;;;5114788;28;20091;-40
2021/12/14 12:14:55;;;;;;;6.68;4.05;;;19.30;47.00;;;;;;5114391;28;20012;-41
2021/12/14 12:17:42;;;;;;;6.57;3.90;;;19.30;47.10;;;;;;5114300;28;20067;-39
2021/12/14 12:20:17;;;;;;;5.60;3.90;;;19.30;47.10;;;;;;5114334;28;20426;-39
2021/12/14 12:22:52;;;;;;;5.40;3.92;;;19.30;47.10;;;;;;5115133;28;20026;-40
2021/12/14 12:25:35;;;;;;;5.63;3.30;;;19.30;47.20;;;;;;5116065;28;20004;-39
2021/12/14 12:28:05;;;;;;;4.85;3.70;;;19.30;47.20;;;;;;5115757;28;20028;-42
2021/12/14 12:30:49;;;;;;;5.03;3.47;;;19.30;47.20;;;;;;5116334;28;20031;-39
2021/12/14 12:33:25;;;;;;;5.28;3.55;;;19.30;47.20;;;;;;5115228;28;20111;-41
2021/12/14 12:36:00;;;;;;;5.43;3.78;;;19.30;47.20;;;;;;5115412;28;20016;-42
2021/12/14 12:38:55;;;;;;;5.20;3.70;;;19.30;47.20;;;;;;5114712;28;20020;-39
2021/12/14 12:41:27;;;;;;;4.93;3.75;;;19.30;47.20;;;;;;5115175;28;20027;-39
2021/12/14 12:44:05;;;;;;;6.80;3.90;;;19.30;47.20;;;;;;5114575;28;20016;-39
2021/12/14 12:46:34;;;;;;;4.90;3.60;;;19.40;47.20;;;;;;5114401;28;20521;-39
2021/12/14 12:49:21;;;;;;;8.45;3.75;;;19.30;47.20;;;;;;5113908;28;20023;-39
2021/12/14 12:51:59;;;;;;;8.07;4.00;;;19.40;47.20;;;;;;5113085;28;20028;-39
2021/12/14 12:54:37;;;;;;;7.72;3.90;;;19.30;47.20;;;;;;5113651;28;20030;-39
2021/12/14 12:57:15;;;;;;;8.00;3.95;;;19.30;47.20;;;;;;5113649;28;20016;-41
2021/12/14 12:59:51;;;;;;;6.57;3.85;;;19.30;47.30;;;;;;5113896;28;20036;-39
2021/12/14 13:02:30;;;;;;;7.97;4.28;;;19.30;47.30;;;;;;5113407;28;20374;-37
2021/12/14 13:05:00;;;;;;;7.53;3.80;;;19.30;47.30;;;;;;5114255;28;20538;-37
2021/12/14 13:07:31;;;;;;;7.53;4.13;;;19.30;47.30;;;;;;5117376;28;20012;-37
2021/12/14 13:10:27;;;;;;;9.77;4.38;;;19.40;47.40;;;;;;5117137;28;20018;-37
2021/12/14 13:12:56;;;;;;;8.75;4.38;;;19.30;47.30;;;;;;5117055;28;20058;-37
2021/12/14 13:15:52;;;;;;;6.22;3.92;;;19.30;47.30;;;;;;5116847;28;20068;-37
2021/12/14 13:18:41;;;;;;;6.10;4.20;;;19.30;47.40;;;;;;5116789;28;20034;-37
2021/12/14 13:21:23;;;;;;;6.53;3.95;;;19.30;47.40;;;;;;5116943;28;20024;-37
2021/12/14 13:23:54;;;;;;;8.15;3.70;;;19.30;47.40;;;;;;5116763;28;20027;-37
2021/12/14 13:26:24;;;;;;;8.57;3.85;;;19.30;47.40;;;;;;5116824;28;20015;-37
2021/12/14 13:28:52;;;;;;;6.00;4.18;;;19.30;47.40;;;;;;5116790;28;20050;-37
2021/12/14 13:31:51;;;;;;;8.00;4.53;;;19.40;47.50;;;;;;5116367;28;20012;-37
2021/12/14 13:34:22;;;;;;;7.05;3.50;;;19.40;47.50;;;;;;5013971;28;20045;-37
2021/12/14 13:36:51;;;;;;;6.53;4.20;;;19.40;48.10;;;;;;5013790;28;20032;-37
2021/12/14 13:39:17;;;;;;;5.53;4.00;;;19.30;47.50;;;;;;5013829;28;20177;-37
2021/12/14 13:42:04;;;;;;;6.78;3.95;;;19.30;47.50;;;;;;4997434;28;20050;-38
2021/12/14 13:44:52;;;;;;;6.30;3.55;;;19.30;47.40;;;;;;5013778;28;20054;-38
2021/12/14 13:47:21;;;;;;;7.25;3.85;;;19.40;47.40;;;;;;5013535;28;20469;-38
2021/12/14 13:49:47;;;;;;;4.28;3.60;;;19.40;47.40;;;;;;4997186;28;20037;-38
2021/12/14 13:52:14;;;;;;;8.00;4.25;;;19.40;47.40;;;;;;5013806;28;20026;-38
2021/12/14 13:55:21;;;;;;;7.60;4.03;;;19.30;47.40;;;;;;5013340;28;20029;-38
2021/12/14 13:58:09;;;;;;;6.07;4.00;;;19.30;47.50;;;;;;5005615;28;20036;-38